sensor_id;sensor_type;location;lat;lon;timestamp;pressure;altitude;pressure_sealevel;temperature
67353;BMP180;54238;52.278;21.056;2023-06-14T00:01:39;100620.20;;;13.80
67353;BMP180;54238;52.278;21.056;2023-06-14T00:04:13;100622.20;;;13.80
67353;BMP180;54238;52.278;21.056;2023-06-14T00:06:42;100619.40;;;13.80
67353;BMP180;54238;52.278;21.056;2023-06-14T00:09:19;100615.40;;;13.80
67353;BMP180;54238;52.278;21.056;2023-06-14T00:11:47;100621.60;;;13.80
67353;BMP180;54238;52.278;21.056;2023-06-14T00:14:16;100624.80;;;13.80
67353;BMP180;54238;52.278;21.056;2023-06-14T00:16:48;100622.80;;;13.80
67353;BMP180;54238;52.278;21.056;2023-06-14T00:19:18;100623.20;;;13.78
67353;BMP180;54238;52.278;21.056;2023-06-14T00:21:48;100617.20;;;13.76
67353;BMP180;54238;52.278;21.056;2023-06-14T00:24:20;100610.20;;;13.74
67353;BMP180;54238;52.278;21.056;2023-06-14T00:26:53;100605.00;;;13.80
67353;BMP180;54238;52.278;21.056;2023-06-14T00:29:27;100607.80;;;13.80
67353;BMP180;54238;52.278;21.056;2023-06-14T00:31:57;100608.40;;;13.80
67353;BMP180;54238;52.278;21.056;2023-06-14T00:34:27;100608.00;;;13.80
67353;BMP180;54238;52.278;21.056;2023-06-14T00:36:54;100607.20;;;13.74
67353;BMP180;54238;52.278;21.056;2023-06-14T00:39:28;100604.40;;;13.70
67353;BMP180;54238;52.278;21.056;2023-06-14T00:41:55;100601.80;;;13.70
67353;BMP180;54238;52.278;21.056;2023-06-14T00:44:30;100596.40;;;13.70
67353;BMP180;54238;52.278;21.056;2023-06-14T00:47:00;100598.80;;;13.70
67353;BMP180;54238;52.278;21.056;2023-06-14T00:49:30;100599.00;;;13.70
67353;BMP180;54238;52.278;21.056;2023-06-14T00:52:05;100597.20;;;13.70
67353;BMP180;54238;52.278;21.056;2023-06-14T00:54:42;100595.40;;;13.70
67353;BMP180;54238;52.278;21.056;2023-06-14T00:57:15;100596.20;;;13.74
67353;BMP180;54238;52.278;21.056;2023-06-14T00:59:49;100599.60;;;13.80
67353;BMP180;54238;52.278;21.056;2023-06-14T01:02:17;100595.20;;;13.80
67353;BMP180;54238;52.278;21.056;2023-06-14T01:04:52;100599.80;;;13.80
67353;BMP180;54238;52.278;21.056;2023-06-14T01:08:14;100595.40;;;13.80
67353;BMP180;54238;52.278;21.056;2023-06-14T01:11:15;100600.80;;;13.80
67353;BMP180;54238;52.278;21.056;2023-06-14T01:13:48;100601.80;;;13.80
67353;BMP180;54238;52.278;21.056;2023-06-14T01:16:22;100598.60;;;13.80
67353;BMP180;54238;52.278;21.056;2023-06-14T01:18:55;100597.20;;;13.80
67353;BMP180;54238;52.278;21.056;2023-06-14T01:21:27;100598.00;;;13.80
67353;BMP180;54238;52.278;21.056;2023-06-14T01:24:00;100602.20;;;13.80
67353;BMP180;54238;52.278;21.056;2023-06-14T01:26:35;100599.80;;;13.80
67353;BMP180;54238;52.278;21.056;2023-06-14T01:29:07;100597.40;;;13.80
67353;BMP180;54238;52.278;21.056;2023-06-14T01:31:44;100597.80;;;13.80
67353;BMP180;54238;52.278;21.056;2023-06-14T01:34:12;100596.00;;;13.80
67353;BMP180;54238;52.278;21.056;2023-06-14T01:36:46;100593.20;;;13.80
67353;BMP180;54238;52.278;21.056;2023-06-14T01:39:20;100593.20;;;13.90
67353;BMP180;54238;52.278;21.056;2023-06-14T01:41:49;100588.20;;;13.90
67353;BMP180;54238;52.278;21.056;2023-06-14T01:44:18;100584.60;;;13.90
67353;BMP180;54238;52.278;21.056;2023-06-14T01:46:49;100580.60;;;13.90
67353;BMP180;54238;52.278;21.056;2023-06-14T01:49:20;100586.00;;;13.90
67353;BMP180;54238;52.278;21.056;2023-06-14T01:51:49;100584.20;;;13.90
67353;BMP180;54238;52.278;21.056;2023-06-14T01:54:19;100585.60;;;13.92
67353;BMP180;54238;52.278;21.056;2023-06-14T01:56:46;100575.80;;;14.00
67353;BMP180;54238;52.278;21.056;2023-06-14T01:59:15;100572.00;;;14.00
67353;BMP180;54238;52.278;21.056;2023-06-14T02:01:45;100574.80;;;14.00
67353;BMP180;54238;52.278;21.056;2023-06-14T02:04:13;100579.60;;;14.10
67353;BMP180;54238;52.278;21.056;2023-06-14T02:06:42;100578.60;;;14.10
67353;BMP180;54238;52.278;21.056;2023-06-14T02:09:09;100578.80;;;14.08
67353;BMP180;54238;52.278;21.056;2023-06-14T02:11:39;100579.20;;;14.00
67353;BMP180;54238;52.278;21.056;2023-06-14T02:14:11;100575.20;;;14.00
67353;BMP180;54238;52.278;21.056;2023-06-14T02:16:41;100575.00;;;14.00
67353;BMP180;54238;52.278;21.056;2023-06-14T02:19:19;100578.60;;;14.00
67353;BMP180;54238;52.278;21.056;2023-06-14T02:21:51;100580.00;;;14.04
67353;BMP180;54238;52.278;21.056;2023-06-14T02:24:23;100579.40;;;14.10
67353;BMP180;54238;52.278;21.056;2023-06-14T02:26:57;100584.00;;;14.10
67353;BMP180;54238;52.278;21.056;2023-06-14T02:29:29;100584.00;;;14.10
67353;BMP180;54238;52.278;21.056;2023-06-14T02:31:59;100580.20;;;14.02
67353;BMP180;54238;52.278;21.056;2023-06-14T02:34:27;100578.80;;;14.00
67353;BMP180;54238;52.278;21.056;2023-06-14T02:36:59;100579.40;;;14.00
67353;BMP180;54238;52.278;21.056;2023-06-14T02:39:32;100574.40;;;14.02
67353;BMP180;54238;52.278;21.056;2023-06-14T02:42:03;100574.40;;;14.02
67353;BMP180;54238;52.278;21.056;2023-06-14T02:44:30;100571.80;;;14.02
67353;BMP180;54238;52.278;21.056;2023-06-14T02:46:59;100574.60;;;14.00
67353;BMP180;54238;52.278;21.056;2023-06-14T02:49:31;100574.80;;;14.00
67353;BMP180;54238;52.278;21.056;2023-06-14T02:52:02;100568.20;;;14.00
67353;BMP180;54238;52.278;21.056;2023-06-14T02:54:37;100558.60;;;14.00
67353;BMP180;54238;52.278;21.056;2023-06-14T02:57:10;100560.80;;;14.00
67353;BMP180;54238;52.278;21.056;2023-06-14T02:59:37;100561.80;;;14.00
67353;BMP180;54238;52.278;21.056;2023-06-14T03:02:09;100564.60;;;14.00
67353;BMP180;54238;52.278;21.056;2023-06-14T03:04:38;100564.20;;;14.00
67353;BMP180;54238;52.278;21.056;2023-06-14T03:07:06;100566.40;;;14.00
67353;BMP180;54238;52.278;21.056;2023-06-14T03:09:39;100567.20;;;14.10
67353;BMP180;54238;52.278;21.056;2023-06-14T03:12:09;100566.60;;;14.10
67353;BMP180;54238;52.278;21.056;2023-06-14T03:14:37;100569.40;;;14.10
67353;BMP180;54238;52.278;21.056;2023-06-14T03:17:05;100571.00;;;14.10
67353;BMP180;54238;52.278;21.056;2023-06-14T03:19:34;100574.60;;;14.10
67353;BMP180;54238;52.278;21.056;2023-06-14T03:22:04;100575.40;;;14.10
67353;BMP180;54238;52.278;21.056;2023-06-14T03:24:34;100576.60;;;14.10
67353;BMP180;54238;52.278;21.056;2023-06-14T03:27:04;100567.60;;;14.10
67353;BMP180;54238;52.278;21.056;2023-06-14T03:29:36;100565.40;;;14.10
67353;BMP180;54238;52.278;21.056;2023-06-14T03:32:06;100565.00;;;14.12
67353;BMP180;54238;52.278;21.056;2023-06-14T03:34:39;100562.20;;;14.10
67353;BMP180;54238;52.278;21.056;2023-06-14T03:37:13;100560.00;;;14.10
67353;BMP180;54238;52.278;21.056;2023-06-14T03:39:40;100559.00;;;14.10
67353;BMP180;54238;52.278;21.056;2023-06-14T03:42:16;100560.00;;;14.10
67353;BMP180;54238;52.278;21.056;2023-06-14T03:44:44;100553.60;;;14.18
67353;BMP180;54238;52.278;21.056;2023-06-14T03:47:20;100553.80;;;14.20
67353;BMP180;54238;52.278;21.056;2023-06-14T03:49:50;100553.80;;;14.20
67353;BMP180;54238;52.278;21.056;2023-06-14T03:52:19;100551.20;;;14.20
67353;BMP180;54238;52.278;21.056;2023-06-14T03:54:49;100557.60;;;14.20
67353;BMP180;54238;52.278;21.056;2023-06-14T03:57:16;100556.20;;;14.20
67353;BMP180;54238;52.278;21.056;2023-06-14T03:59:45;100558.00;;;14.20
67353;BMP180;54238;52.278;21.056;2023-06-14T04:02:15;100553.20;;;14.28
67353;BMP180;54238;52.278;21.056;2023-06-14T04:04:47;100561.40;;;14.30
67353;BMP180;54238;52.278;21.056;2023-06-14T04:07:20;100560.00;;;14.30
67353;BMP180;54238;52.278;21.056;2023-06-14T04:09:50;100564.00;;;14.32
67353;BMP180;54238;52.278;21.056;2023-06-14T04:12:19;100562.00;;;14.40
67353;BMP180;54238;52.278;21.056;2023-06-14T04:14:50;100559.80;;;14.50
67353;BMP180;54238;52.278;21.056;2023-06-14T04:17:18;100565.80;;;14.50
67353;BMP180;54238;52.278;21.056;2023-06-14T04:19:50;100567.40;;;14.50
67353;BMP180;54238;52.278;21.056;2023-06-14T04:22:20;100570.80;;;14.50
67353;BMP180;54238;52.278;21.056;2023-06-14T04:24:49;100572.00;;;14.50
67353;BMP180;54238;52.278;21.056;2023-06-14T04:27:17;100579.60;;;14.50
67353;BMP180;54238;52.278;21.056;2023-06-14T04:29:48;100577.00;;;14.50
67353;BMP180;54238;52.278;21.056;2023-06-14T04:32:16;100573.60;;;14.56
67353;BMP180;54238;52.278;21.056;2023-06-14T04:34:45;100572.60;;;14.60
67353;BMP180;54238;52.278;21.056;2023-06-14T04:37:17;100567.00;;;14.60
67353;BMP180;54238;52.278;21.056;2023-06-14T04:39:46;100562.80;;;14.60
67353;BMP180;54238;52.278;21.056;2023-06-14T04:42:14;100561.80;;;14.60
67353;BMP180;54238;52.278;21.056;2023-06-14T04:44:43;100565.80;;;14.62
67353;BMP180;54238;52.278;21.056;2023-06-14T04:47:18;100560.40;;;14.70
67353;BMP180;54238;52.278;21.056;2023-06-14T04:49:52;100558.40;;;14.70
67353;BMP180;54238;52.278;21.056;2023-06-14T04:52:22;100555.00;;;14.70
67353;BMP180;54238;52.278;21.056;2023-06-14T04:54:58;100551.00;;;14.80
67353;BMP180;54238;52.278;21.056;2023-06-14T04:57:28;100558.60;;;14.80
67353;BMP180;54238;52.278;21.056;2023-06-14T04:59:56;100560.80;;;14.80
67353;BMP180;54238;52.278;21.056;2023-06-14T05:02:31;100565.80;;;14.80
67353;BMP180;54238;52.278;21.056;2023-06-14T05:05:02;100570.60;;;14.80
67353;BMP180;54238;52.278;21.056;2023-06-14T05:07:36;100573.40;;;14.82
67353;BMP180;54238;52.278;21.056;2023-06-14T05:10:08;100571.20;;;14.86
67353;BMP180;54238;52.278;21.056;2023-06-14T05:12:35;100571.60;;;14.82
67353;BMP180;54238;52.278;21.056;2023-06-14T05:15:09;100572.80;;;14.90
67353;BMP180;54238;52.278;21.056;2023-06-14T05:17:38;100575.80;;;14.90
67353;BMP180;54238;52.278;21.056;2023-06-14T05:20:10;100579.80;;;14.82
67353;BMP180;54238;52.278;21.056;2023-06-14T05:22:39;100580.80;;;14.82
67353;BMP180;54238;52.278;21.056;2023-06-14T05:25:06;100582.60;;;14.90
67353;BMP180;54238;52.278;21.056;2023-06-14T05:27:36;100578.00;;;14.90
67353;BMP180;54238;52.278;21.056;2023-06-14T05:30:04;100585.40;;;15.00
67353;BMP180;54238;52.278;21.056;2023-06-14T05:32:32;100580.00;;;15.00
67353;BMP180;54238;52.278;21.056;2023-06-14T05:34:59;100588.60;;;15.04
67353;BMP180;54238;52.278;21.056;2023-06-14T05:37:27;100587.00;;;15.02
67353;BMP180;54238;52.278;21.056;2023-06-14T05:39:57;100589.60;;;15.10
67353;BMP180;54238;52.278;21.056;2023-06-14T05:42:29;100585.20;;;15.10
67353;BMP180;54238;52.278;21.056;2023-06-14T05:45:02;100585.80;;;15.20
67353;BMP180;54238;52.278;21.056;2023-06-14T05:47:35;100589.20;;;15.30
67353;BMP180;54238;52.278;21.056;2023-06-14T05:50:05;100589.40;;;15.30
67353;BMP180;54238;52.278;21.056;2023-06-14T05:52:34;100583.60;;;15.32
67353;BMP180;54238;52.278;21.056;2023-06-14T05:55:07;100591.60;;;15.42
67353;BMP180;54238;52.278;21.056;2023-06-14T05:57:37;100595.60;;;15.56
67353;BMP180;54238;52.278;21.056;2023-06-14T06:00:09;100603.40;;;15.60
67353;BMP180;54238;52.278;21.056;2023-06-14T06:02:46;100598.80;;;15.70
67353;BMP180;54238;52.278;21.056;2023-06-14T06:05:16;100596.60;;;15.70
67353;BMP180;54238;52.278;21.056;2023-06-14T06:07:46;100600.00;;;15.70
67353;BMP180;54238;52.278;21.056;2023-06-14T06:10:13;100597.40;;;15.80
67353;BMP180;54238;52.278;21.056;2023-06-14T06:12:43;100598.60;;;15.82
67353;BMP180;54238;52.278;21.056;2023-06-14T06:15:13;100594.80;;;15.90
67353;BMP180;54238;52.278;21.056;2023-06-14T06:17:43;100592.60;;;15.96
67353;BMP180;54238;52.278;21.056;2023-06-14T06:20:13;100595.00;;;16.00
67353;BMP180;54238;52.278;21.056;2023-06-14T06:22:40;100595.40;;;16.10
67353;BMP180;54238;52.278;21.056;2023-06-14T06:25:10;100595.40;;;16.12
67353;BMP180;54238;52.278;21.056;2023-06-14T06:27:37;100595.40;;;16.20
67353;BMP180;54238;52.278;21.056;2023-06-14T06:30:10;100597.00;;;16.30
67353;BMP180;54238;52.278;21.056;2023-06-14T06:32:40;100600.20;;;16.38
67353;BMP180;54238;52.278;21.056;2023-06-14T06:35:07;100602.40;;;16.40
67353;BMP180;54238;52.278;21.056;2023-06-14T06:37:35;100611.40;;;16.50
67353;BMP180;54238;52.278;21.056;2023-06-14T06:40:05;100612.80;;;16.50
67353;BMP180;54238;52.278;21.056;2023-06-14T06:42:41;100613.60;;;16.54
67353;BMP180;54238;52.278;21.056;2023-06-14T06:45:11;100612.60;;;16.60
67353;BMP180;54238;52.278;21.056;2023-06-14T06:47:40;100611.80;;;16.70
67353;BMP180;54238;52.278;21.056;2023-06-14T06:50:08;100615.60;;;16.70
67353;BMP180;54238;52.278;21.056;2023-06-14T06:52:36;100614.80;;;16.80
67353;BMP180;54238;52.278;21.056;2023-06-14T06:55:05;100611.00;;;16.80
67353;BMP180;54238;52.278;21.056;2023-06-14T06:57:33;100608.20;;;16.80
67353;BMP180;54238;52.278;21.056;2023-06-14T07:00:00;100605.20;;;16.80
67353;BMP180;54238;52.278;21.056;2023-06-14T07:02:34;100603.40;;;16.90
67353;BMP180;54238;52.278;21.056;2023-06-14T07:05:04;100603.60;;;16.90
67353;BMP180;54238;52.278;21.056;2023-06-14T07:07:31;100608.80;;;16.90
67353;BMP180;54238;52.278;21.056;2023-06-14T07:10:04;100609.60;;;16.82
67353;BMP180;54238;52.278;21.056;2023-06-14T07:12:35;100615.40;;;16.90
67353;BMP180;54238;52.278;21.056;2023-06-14T07:15:08;100616.40;;;16.90
67353;BMP180;54238;52.278;21.056;2023-06-14T07:17:38;100614.80;;;16.90
67353;BMP180;54238;52.278;21.056;2023-06-14T07:20:09;100614.80;;;17.00
67353;BMP180;54238;52.278;21.056;2023-06-14T07:22:42;100610.80;;;17.10
67353;BMP180;54238;52.278;21.056;2023-06-14T07:25:17;100615.60;;;17.20
67353;BMP180;54238;52.278;21.056;2023-06-14T07:27:49;100608.20;;;17.36
67353;BMP180;54238;52.278;21.056;2023-06-14T07:30:16;100611.00;;;17.50
67353;BMP180;54238;52.278;21.056;2023-06-14T07:32:46;100609.60;;;17.60
67353;BMP180;54238;52.278;21.056;2023-06-14T07:35:16;100615.60;;;17.70
67353;BMP180;54238;52.278;21.056;2023-06-14T07:37:44;100615.40;;;17.76
67353;BMP180;54238;52.278;21.056;2023-06-14T07:40:15;100619.60;;;17.80
67353;BMP180;54238;52.278;21.056;2023-06-14T07:42:45;100616.40;;;17.90
67353;BMP180;54238;52.278;21.056;2023-06-14T07:45:15;100621.00;;;18.00
67353;BMP180;54238;52.278;21.056;2023-06-14T07:47:43;100626.20;;;18.10
67353;BMP180;54238;52.278;21.056;2023-06-14T07:50:15;100626.00;;;18.20
67353;BMP180;54238;52.278;21.056;2023-06-14T07:52:45;100625.40;;;18.30
67353;BMP180;54238;52.278;21.056;2023-06-14T07:55:15;100620.60;;;18.40
67353;BMP180;54238;52.278;21.056;2023-06-14T07:57:45;100629.20;;;18.50
67353;BMP180;54238;52.278;21.056;2023-06-14T08:00:12;100629.20;;;18.60
67353;BMP180;54238;52.278;21.056;2023-06-14T08:02:43;100631.00;;;18.70
67353;BMP180;54238;52.278;21.056;2023-06-14T08:05:15;100628.80;;;18.80
67353;BMP180;54238;52.278;21.056;2023-06-14T08:07:43;100627.80;;;18.80
67353;BMP180;54238;52.278;21.056;2023-06-14T08:10:17;100627.00;;;18.90
67353;BMP180;54238;52.278;21.056;2023-06-14T08:12:45;100629.60;;;18.98
67353;BMP180;54238;52.278;21.056;2023-06-14T08:15:18;100638.20;;;19.00
67353;BMP180;54238;52.278;21.056;2023-06-14T08:17:48;100634.60;;;19.00
67353;BMP180;54238;52.278;21.056;2023-06-14T08:20:22;100635.80;;;19.10
67353;BMP180;54238;52.278;21.056;2023-06-14T08:22:52;100634.00;;;19.20
67353;BMP180;54238;52.278;21.056;2023-06-14T08:25:25;100635.80;;;19.24
67353;BMP180;54238;52.278;21.056;2023-06-14T08:27:58;100640.00;;;19.30
67353;BMP180;54238;52.278;21.056;2023-06-14T08:30:27;100635.80;;;19.30
67353;BMP180;54238;52.278;21.056;2023-06-14T08:32:55;100642.00;;;19.30
67353;BMP180;54238;52.278;21.056;2023-06-14T08:35:25;100640.20;;;19.40
67353;BMP180;54238;52.278;21.056;2023-06-14T08:37:52;100633.80;;;19.40
67353;BMP180;54238;52.278;21.056;2023-06-14T08:40:23;100634.40;;;19.40
67353;BMP180;54238;52.278;21.056;2023-06-14T08:42:53;100635.00;;;19.38
67353;BMP180;54238;52.278;21.056;2023-06-14T08:45:22;100635.40;;;19.40
67353;BMP180;54238;52.278;21.056;2023-06-14T08:47:52;100629.00;;;19.40
67353;BMP180;54238;52.278;21.056;2023-06-14T08:50:28;100630.40;;;19.40
67353;BMP180;54238;52.278;21.056;2023-06-14T08:53:02;100632.40;;;19.50
67353;BMP180;54238;52.278;21.056;2023-06-14T08:55:30;100634.40;;;19.64
67353;BMP180;54238;52.278;21.056;2023-06-14T08:58:00;100632.00;;;19.80
67353;BMP180;54238;52.278;21.056;2023-06-14T09:00:30;100631.60;;;19.80
67353;BMP180;54238;52.278;21.056;2023-06-14T09:03:03;100625.60;;;19.96
67353;BMP180;54238;52.278;21.056;2023-06-14T09:05:32;100625.60;;;20.10
67353;BMP180;54238;52.278;21.056;2023-06-14T09:08:02;100629.60;;;20.26
67353;BMP180;54238;52.278;21.056;2023-06-14T09:10:31;100625.80;;;20.44
67353;BMP180;54238;52.278;21.056;2023-06-14T09:13:06;100632.80;;;20.66
67353;BMP180;54238;52.278;21.056;2023-06-14T09:15:35;100630.60;;;20.88
67353;BMP180;54238;52.278;21.056;2023-06-14T09:18:06;100629.40;;;21.10
67353;BMP180;54238;52.278;21.056;2023-06-14T09:20:37;100630.80;;;21.22
67353;BMP180;54238;52.278;21.056;2023-06-14T09:23:05;100628.00;;;21.40
67353;BMP180;54238;52.278;21.056;2023-06-14T09:25:46;100625.20;;;21.46
67353;BMP180;54238;52.278;21.056;2023-06-14T09:28:14;100623.20;;;21.44
67353;BMP180;54238;52.278;21.056;2023-06-14T09:30:41;100629.00;;;21.40
67353;BMP180;54238;52.278;21.056;2023-06-14T09:33:08;100628.40;;;21.30
67353;BMP180;54238;52.278;21.056;2023-06-14T09:35:35;100635.20;;;21.20
67353;BMP180;54238;52.278;21.056;2023-06-14T09:38:05;100637.20;;;21.10
67353;BMP180;54238;52.278;21.056;2023-06-14T09:40:39;100636.00;;;20.98
67353;BMP180;54238;52.278;21.056;2023-06-14T09:43:08;100638.20;;;20.80
67353;BMP180;54238;52.278;21.056;2023-06-14T09:45:46;100636.20;;;20.70
67353;BMP180;54238;52.278;21.056;2023-06-14T09:48:16;100641.40;;;20.60
67353;BMP180;54238;52.278;21.056;2023-06-14T09:50:49;100639.00;;;20.70
67353;BMP180;54238;52.278;21.056;2023-06-14T09:53:23;100641.80;;;20.76
67353;BMP180;54238;52.278;21.056;2023-06-14T09:55:55;100639.80;;;20.90
67353;BMP180;54238;52.278;21.056;2023-06-14T09:58:27;100633.00;;;21.18
67353;BMP180;54238;52.278;21.056;2023-06-14T10:00:55;100638.20;;;21.60
67353;BMP180;54238;52.278;21.056;2023-06-14T10:03:28;100636.60;;;21.90
67353;BMP180;54238;52.278;21.056;2023-06-14T10:06:03;100633.80;;;22.20
67353;BMP180;54238;52.278;21.056;2023-06-14T10:08:40;100634.00;;;22.44
67353;BMP180;54238;52.278;21.056;2023-06-14T10:11:13;100639.80;;;22.60
67353;BMP180;54238;52.278;21.056;2023-06-14T10:13:45;100640.00;;;22.60
67353;BMP180;54238;52.278;21.056;2023-06-14T10:16:24;100640.80;;;22.70
67353;BMP180;54238;52.278;21.056;2023-06-14T10:19:19;100636.60;;;22.70
67353;BMP180;54238;52.278;21.056;2023-06-14T10:22:02;100630.20;;;22.70
67353;BMP180;54238;52.278;21.056;2023-06-14T10:24:42;100638.20;;;22.90
67353;BMP180;54238;52.278;21.056;2023-06-14T10:27:19;100636.20;;;23.10
67353;BMP180;54238;52.278;21.056;2023-06-14T10:32:24;100635.80;;;23.18
67353;BMP180;54238;52.278;21.056;2023-06-14T10:35:05;100637.00;;;23.10
67353;BMP180;54238;52.278;21.056;2023-06-14T10:37:38;100639.40;;;23.10
67353;BMP180;54238;52.278;21.056;2023-06-14T10:40:06;100641.60;;;23.02
67353;BMP180;54238;52.278;21.056;2023-06-14T10:42:38;100637.40;;;23.00
67353;BMP180;54238;52.278;21.056;2023-06-14T10:45:12;100636.80;;;23.08
67353;BMP180;54238;52.278;21.056;2023-06-14T10:47:57;100635.80;;;23.00
67353;BMP180;54238;52.278;21.056;2023-06-14T10:50:29;100637.60;;;22.90
67353;BMP180;54238;52.278;21.056;2023-06-14T10:52:56;100636.40;;;22.78
67353;BMP180;54238;52.278;21.056;2023-06-14T10:55:28;100634.40;;;22.70
67353;BMP180;54238;52.278;21.056;2023-06-14T10:58:04;100633.80;;;22.64
67353;BMP180;54238;52.278;21.056;2023-06-14T11:00:34;100633.00;;;22.62
67353;BMP180;54238;52.278;21.056;2023-06-14T11:03:42;100633.00;;;22.60
67353;BMP180;54238;52.278;21.056;2023-06-14T11:06:17;100627.80;;;22.60
67353;BMP180;54238;52.278;21.056;2023-06-14T11:11:51;100623.80;;;22.60
67353;BMP180;54238;52.278;21.056;2023-06-14T11:14:20;100619.00;;;22.40
67353;BMP180;54238;52.278;21.056;2023-06-14T11:16:52;100614.60;;;22.40
67353;BMP180;54238;52.278;21.056;2023-06-14T11:19:21;100607.80;;;22.66
67353;BMP180;54238;52.278;21.056;2023-06-14T11:21:51;100611.00;;;22.90
67353;BMP180;54238;52.278;21.056;2023-06-14T11:24:20;100612.80;;;23.10
67353;BMP180;54238;52.278;21.056;2023-06-14T11:26:52;100612.00;;;23.20
67353;BMP180;54238;52.278;21.056;2023-06-14T11:29:20;100612.60;;;23.24
67353;BMP180;54238;52.278;21.056;2023-06-14T11:31:47;100607.20;;;23.24
67353;BMP180;54238;52.278;21.056;2023-06-14T11:34:17;100609.60;;;23.54
67353;BMP180;54238;52.278;21.056;2023-06-14T11:36:47;100608.00;;;23.86
67353;BMP180;54238;52.278;21.056;2023-06-14T11:39:24;100611.40;;;24.30
67353;BMP180;54238;52.278;21.056;2023-06-14T11:41:51;100615.80;;;24.56
67353;BMP180;54238;52.278;21.056;2023-06-14T11:44:19;100608.60;;;24.96
67353;BMP180;54238;52.278;21.056;2023-06-14T11:46:46;100620.60;;;25.40
67353;BMP180;54238;52.278;21.056;2023-06-14T11:49:13;100610.20;;;25.80
67353;BMP180;54238;52.278;21.056;2023-06-14T11:51:45;100613.80;;;26.34
67353;BMP180;54238;52.278;21.056;2023-06-14T11:54:13;100622.40;;;26.68
67353;BMP180;54238;52.278;21.056;2023-06-14T11:56:42;100614.00;;;26.80
67353;BMP180;54238;52.278;21.056;2023-06-14T11:59:13;100617.60;;;27.10
67353;BMP180;54238;52.278;21.056;2023-06-14T12:01:43;100609.60;;;27.30
67353;BMP180;54238;52.278;21.056;2023-06-14T12:04:24;100619.40;;;27.44
67353;BMP180;54238;52.278;21.056;2023-06-14T12:06:53;100615.40;;;27.50
67353;BMP180;54238;52.278;21.056;2023-06-14T12:09:24;100621.80;;;27.10
67353;BMP180;54238;52.278;21.056;2023-06-14T12:12:04;100621.40;;;26.68
67353;BMP180;54238;52.278;21.056;2023-06-14T12:14:33;100619.80;;;26.30
67353;BMP180;54238;52.278;21.056;2023-06-14T12:17:06;100617.00;;;26.20
67353;BMP180;54238;52.278;21.056;2023-06-14T12:19:45;100617.40;;;26.40
67353;BMP180;54238;52.278;21.056;2023-06-14T12:22:13;100613.80;;;26.60
67353;BMP180;54238;52.278;21.056;2023-06-14T12:24:46;100618.80;;;26.86
67353;BMP180;54238;52.278;21.056;2023-06-14T12:27:13;100620.20;;;27.16
67353;BMP180;54238;52.278;21.056;2023-06-14T12:29:42;100615.60;;;27.46
67353;BMP180;54238;52.278;21.056;2023-06-14T12:32:12;100614.20;;;27.70
67353;BMP180;54238;52.278;21.056;2023-06-14T12:34:39;100613.60;;;27.82
67353;BMP180;54238;52.278;21.056;2023-06-14T12:37:09;100612.60;;;27.84
67353;BMP180;54238;52.278;21.056;2023-06-14T12:39:37;100610.00;;;28.14
67353;BMP180;54238;52.278;21.056;2023-06-14T12:42:09;100606.20;;;28.60
67353;BMP180;54238;52.278;21.056;2023-06-14T12:44:36;100608.60;;;28.20
67353;BMP180;54238;52.278;21.056;2023-06-14T12:47:08;100604.20;;;28.34
67353;BMP180;54238;52.278;21.056;2023-06-14T12:49:35;100605.80;;;28.30
67353;BMP180;54238;52.278;21.056;2023-06-14T12:52:04;100603.40;;;28.10
67353;BMP180;54238;52.278;21.056;2023-06-14T12:54:32;100609.80;;;27.66
67353;BMP180;54238;52.278;21.056;2023-06-14T12:56:59;100608.20;;;27.30
67353;BMP180;54238;52.278;21.056;2023-06-14T12:59:28;100604.00;;;27.30
67353;BMP180;54238;52.278;21.056;2023-06-14T13:02:19;100594.20;;;27.48
67353;BMP180;54238;52.278;21.056;2023-06-14T13:04:50;100595.00;;;27.94
67353;BMP180;54238;52.278;21.056;2023-06-14T13:07:22;100592.60;;;28.10
67353;BMP180;54238;52.278;21.056;2023-06-14T13:09:49;100599.20;;;28.40
67353;BMP180;54238;52.278;21.056;2023-06-14T13:12:22;100594.60;;;28.74
67353;BMP180;54238;52.278;21.056;2023-06-14T13:14:51;100598.60;;;28.70
67353;BMP180;54238;52.278;21.056;2023-06-14T13:17:18;100593.80;;;28.60
67353;BMP180;54238;52.278;21.056;2023-06-14T13:19:46;100592.40;;;28.90
67353;BMP180;54238;52.278;21.056;2023-06-14T13:22:13;100592.00;;;29.10
67353;BMP180;54238;52.278;21.056;2023-06-14T13:24:42;100593.20;;;29.30
67353;BMP180;54238;52.278;21.056;2023-06-14T13:27:10;100593.40;;;29.30
67353;BMP180;54238;52.278;21.056;2023-06-14T13:29:41;100595.20;;;28.96
67353;BMP180;54238;52.278;21.056;2023-06-14T13:32:08;100596.60;;;28.46
67353;BMP180;54238;52.278;21.056;2023-06-14T13:34:36;100596.80;;;27.82
67353;BMP180;54238;52.278;21.056;2023-06-14T13:37:08;100594.80;;;27.40
67353;BMP180;54238;52.278;21.056;2023-06-14T13:39:39;100592.60;;;27.30
67353;BMP180;54238;52.278;21.056;2023-06-14T13:42:11;100590.60;;;26.92
67353;BMP180;54238;52.278;21.056;2023-06-14T13:44:43;100580.80;;;26.70
67353;BMP180;54238;52.278;21.056;2023-06-14T13:47:17;100587.60;;;26.40
67353;BMP180;54238;52.278;21.056;2023-06-14T13:49:49;100590.60;;;26.24
67353;BMP180;54238;52.278;21.056;2023-06-14T13:52:16;100587.60;;;26.10
67353;BMP180;54238;52.278;21.056;2023-06-14T13:54:43;100590.60;;;26.02
67353;BMP180;54238;52.278;21.056;2023-06-14T13:57:12;100587.40;;;26.10
67353;BMP180;54238;52.278;21.056;2023-06-14T13:59:40;100586.20;;;25.98
67353;BMP180;54238;52.278;21.056;2023-06-14T14:02:14;100585.40;;;25.80
67353;BMP180;54238;52.278;21.056;2023-06-14T14:04:45;100578.60;;;25.60
67353;BMP180;54238;52.278;21.056;2023-06-14T14:07:19;100576.60;;;25.60
67353;BMP180;54238;52.278;21.056;2023-06-14T14:09:47;100572.20;;;25.74
67353;BMP180;54238;52.278;21.056;2023-06-14T14:12:24;100568.40;;;26.00